createdAt,value
2022-09-23T00:00:37.888Z,99751.16
2022-09-23T00:03:05.000Z,99749.75
2022-09-23T00:05:31.925Z,99749.59
2022-09-23T00:07:58.842Z,99745.41
2022-09-23T00:10:28.390Z,99736.19
2022-09-23T00:12:55.323Z,99749.06
2022-09-23T00:15:21.796Z,99743.84
2022-09-23T00:17:48.458Z,99730.09
2022-09-23T00:20:14.833Z,99740.06
2022-09-23T00:22:41.212Z,99728.28
2022-09-23T00:25:08.838Z,99746.34
2022-09-23T00:27:36.372Z,99743.91
2022-09-23T00:30:05.140Z,99741.38
2022-09-23T00:32:31.551Z,99704.84
2022-09-23T00:34:58.115Z,99731.09
2022-09-23T00:37:24.487Z,99725.19
2022-09-23T00:39:50.819Z,99733.16
2022-09-23T00:42:20.303Z,99724.88
2022-09-23T00:44:55.846Z,99728.19
2022-09-23T00:47:44.486Z,99730.63
2022-09-23T00:50:18.788Z,99727.28
2022-09-23T00:52:45.731Z,99717.09
2022-09-23T00:55:17.852Z,99710.28
2022-09-23T00:57:45.427Z,99714.53
2022-09-23T01:00:12.967Z,99713.69
2022-09-23T01:02:39.589Z,99707.84
2022-09-23T01:05:07.444Z,99714.94
2022-09-23T01:07:34.269Z,99698.66
2022-09-23T01:10:01.838Z,99698.59
2022-09-23T01:12:57.208Z,99711.41
2022-09-23T01:15:46.396Z,99703.75
2022-09-23T01:18:46.406Z,99703.81
2022-09-23T01:21:55.197Z,99694.56
2022-09-23T01:24:46.667Z,99699.69
2022-09-23T01:27:47.279Z,99698.84
2022-09-23T01:30:50.347Z,99697.31
2022-09-23T01:33:46.117Z,99697.31
2022-09-23T01:36:42.419Z,99688.75
2022-09-23T01:39:12.946Z,99696.47
2022-09-23T01:42:06.142Z,99685.53
2022-09-23T01:44:53.971Z,99687.44
2022-09-23T01:47:36.246Z,99677.28
2022-09-23T01:50:28.714Z,99689.28
2022-09-23T01:52:57.999Z,99686.69
2022-09-23T01:55:31.734Z,99670.34
2022-09-23T01:58:09.997Z,99678.97
2022-09-23T02:00:42.073Z,99685.25
2022-09-23T02:03:18.864Z,99670.59
2022-09-23T02:05:50.822Z,99671.56
2022-09-23T02:08:31.721Z,99661.16
2022-09-23T02:11:07.030Z,99660.09
2022-09-23T02:13:48.710Z,99664.41
2022-09-23T02:16:23.175Z,99669.88
2022-09-23T02:18:57.814Z,99666.53
2022-09-23T02:21:29.646Z,99663.25
2022-09-23T02:24:03.887Z,99660.63
2022-09-23T02:26:36.047Z,99656.38
2022-09-23T02:29:38.039Z,99664.34
2022-09-23T02:32:21.311Z,99661.84
2022-09-23T02:35:04.026Z,99671.53
2022-09-23T02:37:48.735Z,99658.59
2022-09-23T02:40:31.952Z,99664.00
2022-09-23T02:43:42.708Z,99664.66
2022-09-23T02:46:09.761Z,99657.94
2022-09-23T02:48:42.610Z,99651.06
2022-09-23T02:51:10.162Z,99658.75
2022-09-23T02:53:37.499Z,99652.78
2022-09-23T02:56:15.121Z,99653.66
2022-09-23T02:58:41.729Z,99643.56
2022-09-23T03:01:59.238Z,99646.91
2022-09-23T03:04:53.593Z,99649.63
2022-09-23T03:07:44.974Z,99643.69
2022-09-23T03:10:29.823Z,99644.47
2022-09-23T03:13:09.808Z,99636.91
2022-09-23T03:15:51.998Z,99642.25
2022-09-23T03:18:42.667Z,99634.59
2022-09-23T03:21:12.258Z,99637.31
2022-09-23T03:23:41.779Z,99640.53
2022-09-23T03:26:17.393Z,99632.03
2022-09-23T03:28:45.883Z,99626.16
2022-09-23T03:31:14.153Z,99632.09
2022-09-23T03:33:46.770Z,99626.22
2022-09-23T03:36:16.683Z,99624.69
2022-09-23T03:38:45.262Z,99635.06
2022-09-23T03:41:15.413Z,99625.69
2022-09-23T03:43:41.882Z,99617.94
2022-09-23T03:46:08.368Z,99605.84
2022-09-23T03:48:34.746Z,99618.16
2022-09-23T03:51:17.685Z,99614.72
2022-09-23T03:53:43.974Z,99601.09
2022-09-23T03:56:10.366Z,99618.88
2022-09-23T03:58:36.734Z,99617.16
2022-09-23T04:01:03.064Z,99596.78
2022-09-23T04:03:29.996Z,99620.78
2022-09-23T04:05:56.394Z,99615.00
2022-09-23T04:08:22.846Z,99608.06
2022-09-23T04:10:52.883Z,99610.75
2022-09-23T04:13:21.085Z,99607.22
2022-09-23T04:15:50.193Z,99603.63
2022-09-23T04:18:16.486Z,99574.91
2022-09-23T04:20:43.279Z,99575.69
2022-09-23T04:23:09.596Z,99585.00
2022-09-23T04:25:35.867Z,99588.50
2022-09-23T04:28:02.278Z,99583.41
2022-09-23T04:30:28.557Z,99596.31
2022-09-23T04:32:54.907Z,99590.38
2022-09-23T04:35:21.177Z,99584.44
2022-09-23T04:37:48.016Z,99590.22
2022-09-23T04:40:14.562Z,99591.00
2022-09-23T04:42:40.928Z,99586.88
2022-09-23T04:45:07.734Z,99592.16
2022-09-23T04:47:34.097Z,99588.84
2022-09-23T04:50:00.361Z,99590.66
2022-09-23T04:52:26.865Z,99573.66
2022-09-23T04:54:53.148Z,99591.50
2022-09-23T04:57:19.501Z,99593.28
2022-09-23T04:59:45.768Z,99583.00
2022-09-23T05:02:12.244Z,99588.13
2022-09-23T05:04:38.623Z,99589.88
2022-09-23T05:07:04.979Z,99591.56
2022-09-23T05:09:33.322Z,99582.16
2022-09-23T05:11:59.765Z,99588.19
2022-09-23T05:14:26.043Z,99586.69
2022-09-23T05:16:52.322Z,99589.06
2022-09-23T05:19:18.914Z,99591.00
2022-09-23T05:21:45.281Z,99590.94
2022-09-23T05:24:12.149Z,99592.50
2022-09-23T05:26:38.527Z,99576.19
2022-09-23T05:29:04.951Z,99583.91
2022-09-23T05:31:31.450Z,99589.06
2022-09-23T05:34:00.237Z,99598.38
2022-09-23T05:36:27.990Z,99591.06
2022-09-23T05:38:54.712Z,99590.22
2022-09-23T05:41:21.813Z,99594.41
2022-09-23T05:43:50.472Z,99596.03
2022-09-23T05:46:19.264Z,99592.53
2022-09-23T05:48:46.329Z,99591.56
2022-09-23T05:51:16.267Z,99593.94
2022-09-23T05:53:45.024Z,99594.50
2022-09-23T05:56:16.346Z,99601.38
2022-09-23T05:58:43.226Z,99578.97
2022-09-23T06:01:15.206Z,99599.19
2022-09-23T06:03:41.652Z,99580.25
2022-09-23T06:06:12.330Z,99585.25
2022-09-23T06:08:38.749Z,99586.06
2022-09-23T06:11:07.059Z,99578.88
2022-09-23T06:13:35.025Z,99579.59
2022-09-23T06:16:02.135Z,99577.81
2022-09-23T06:18:28.558Z,99579.13
2022-09-23T06:20:54.838Z,99583.34
2022-09-23T06:23:25.310Z,99590.72
2022-09-23T06:25:52.811Z,99586.03
2022-09-23T06:28:19.972Z,99584.22
2022-09-23T06:30:47.123Z,99579.00
2022-09-23T06:33:14.554Z,99589.00
2022-09-23T06:35:42.136Z,99590.50
2022-09-23T06:38:11.208Z,99578.25
2022-09-23T06:40:37.648Z,99576.13
2022-09-23T06:43:03.996Z,99580.13
2022-09-23T06:45:30.360Z,99567.06
2022-09-23T06:47:58.205Z,99566.25
2022-09-23T06:50:26.262Z,99582.16
2022-09-23T06:52:56.488Z,99582.72
2022-09-23T06:55:27.013Z,99589.47
2022-09-23T06:57:54.436Z,99588.16
2022-09-23T07:00:21.019Z,99585.97
2022-09-23T07:02:47.572Z,99586.50
2022-09-23T07:05:14.371Z,99576.31
2022-09-23T07:07:40.831Z,99581.50
2022-09-23T07:10:07.453Z,99566.28
2022-09-23T07:12:34.542Z,99583.81
2022-09-23T07:15:01.194Z,99574.75
2022-09-23T07:17:27.689Z,99576.81
2022-09-23T07:19:54.131Z,99576.88
2022-09-23T07:22:24.409Z,99580.78
2022-09-23T07:24:51.601Z,99582.34
2022-09-23T07:27:19.449Z,99573.06
2022-09-23T07:29:48.882Z,99584.56
2022-09-23T07:32:15.602Z,99560.81
2022-09-23T07:34:42.084Z,99557.06
2022-09-23T07:37:08.993Z,99549.34
2022-09-23T07:39:35.387Z,99563.31
2022-09-23T07:42:02.022Z,99545.88
2022-09-23T07:44:28.660Z,99536.28
2022-09-23T07:46:55.011Z,99545.06
2022-09-23T07:49:21.672Z,99539.41
2022-09-23T07:51:48.062Z,99541.31
2022-09-23T07:54:16.478Z,99544.22
2022-09-23T07:56:44.089Z,99544.41
2022-09-23T07:59:16.083Z,99547.28
2022-09-23T08:01:48.297Z,99530.50
2022-09-23T08:04:19.250Z,99535.88
2022-09-23T08:06:48.190Z,99538.22
2022-09-23T08:09:16.068Z,99532.56
2022-09-23T08:11:42.567Z,99532.69
2022-09-23T08:14:13.257Z,99541.31
2022-09-23T08:16:41.004Z,99532.81
2022-09-23T08:19:08.170Z,99534.66
2022-09-23T08:21:34.938Z,99528.59
2022-09-23T08:24:01.424Z,99533.91
2022-09-23T08:26:28.485Z,99537.28
2022-09-23T08:28:54.958Z,99514.66
2022-09-23T08:31:22.589Z,99528.34
2022-09-23T08:33:57.037Z,99529.41
2022-09-23T08:36:24.726Z,99523.38
2022-09-23T08:38:51.539Z,99519.34
2022-09-23T08:41:40.808Z,99522.22
2022-09-23T08:44:13.421Z,99520.41
2022-09-23T08:47:00.182Z,99506.25
2022-09-23T08:49:36.701Z,99516.66
2022-09-23T08:52:11.960Z,99513.72
2022-09-23T08:54:38.243Z,99507.13
2022-09-23T08:57:05.752Z,99510.75
2022-09-23T08:59:39.595Z,99506.97
2022-09-23T09:02:18.043Z,99507.91
2022-09-23T09:04:58.866Z,99505.84
2022-09-23T09:07:36.601Z,99496.66
2022-09-23T09:10:24.631Z,99497.47
2022-09-23T09:12:59.742Z,99486.16
2022-09-23T09:15:28.452Z,99502.94
2022-09-23T09:18:18.798Z,99482.22
2022-09-23T09:21:05.080Z,99487.47
2022-09-23T09:23:37.397Z,99494.09
2022-09-23T09:26:06.317Z,99480.28
2022-09-23T09:28:43.436Z,99481.91
2022-09-23T09:31:33.040Z,99485.34
2022-09-23T09:34:04.997Z,99466.84
2022-09-23T09:36:40.589Z,99470.72
2022-09-23T09:39:12.749Z,99465.84
2022-09-23T09:41:44.813Z,99469.97
2022-09-23T09:44:38.679Z,99465.69
2022-09-23T09:47:10.835Z,99467.91
2022-09-23T09:50:06.110Z,99450.06
2022-09-23T09:52:32.533Z,99457.38
2022-09-23T09:55:14.031Z,99445.44
2022-09-23T09:57:57.874Z,99438.41
2022-09-23T10:00:24.223Z,99437.34
2022-09-23T10:02:55.283Z,99433.09
2022-09-23T10:05:33.759Z,99432.69
2022-09-23T10:08:30.353Z,99436.84
2022-09-23T10:11:00.945Z,99429.84
2022-09-23T10:13:28.046Z,99427.22
2022-09-23T10:15:54.413Z,99433.34
2022-09-23T10:18:26.239Z,99430.94
2022-09-23T10:20:52.590Z,99426.72
2022-09-23T10:23:29.016Z,99438.91
2022-09-23T10:26:05.309Z,99432.25
2022-09-23T10:28:48.627Z,99422.31
2022-09-23T10:31:36.672Z,99428.41
2022-09-23T10:34:26.393Z,99435.69
2022-09-23T10:37:02.592Z,99428.69
2022-09-23T10:39:29.833Z,99446.19
2022-09-23T10:42:03.681Z,99432.84
2022-09-23T10:44:44.442Z,99419.75
2022-09-23T10:47:30.441Z,99416.41
2022-09-23T10:50:15.366Z,99425.28
2022-09-23T10:52:54.750Z,99411.66
2022-09-23T10:55:36.921Z,99406.94
2022-09-23T10:58:27.986Z,99411.94
2022-09-23T11:01:05.512Z,99412.56
2022-09-23T11:03:56.664Z,99410.72
2022-09-23T11:06:38.371Z,99397.56
2022-09-23T11:09:21.722Z,99398.09
2022-09-23T11:11:59.833Z,99414.22
2022-09-23T11:14:29.093Z,99403.31
2022-09-23T11:17:05.354Z,99398.13
2022-09-23T11:19:49.924Z,99386.06
2022-09-23T11:22:41.153Z,99371.41
2022-09-23T11:25:52.499Z,99379.78
2022-09-23T11:28:46.772Z,99364.81
2022-09-23T11:31:42.012Z,99353.34
2022-09-23T11:34:26.107Z,99354.84
2022-09-23T11:36:59.154Z,99351.38
2022-09-23T11:39:35.064Z,99343.75
2022-09-23T11:42:02.777Z,99347.06
2022-09-23T11:44:35.439Z,99337.47
2022-09-23T11:47:08.876Z,99324.97
2022-09-23T11:49:41.030Z,99341.97
2022-09-23T11:52:20.748Z,99343.78
2022-09-23T11:54:51.653Z,99340.56
2022-09-23T11:57:48.853Z,99332.22
2022-09-23T12:00:23.814Z,99332.19
2022-09-23T12:03:05.474Z,99329.66
2022-09-23T12:05:41.920Z,99319.66
2022-09-23T12:08:24.076Z,99303.97
2022-09-23T12:11:05.337Z,99301.91
2022-09-23T12:14:00.470Z,99303.16
2022-09-23T12:16:49.882Z,99298.56
2022-09-23T12:20:04.586Z,99292.69
2022-09-23T12:23:08.627Z,99299.38
2022-09-23T12:25:46.852Z,99302.00
2022-09-23T12:28:25.073Z,99291.81
2022-09-23T12:30:54.813Z,99285.28
2022-09-23T12:33:26.859Z,99280.69
2022-09-23T12:35:55.849Z,99288.59
2022-09-23T12:38:38.405Z,99271.13
2022-09-23T12:41:22.742Z,99275.50
2022-09-23T12:43:59.996Z,99277.44
2022-09-23T12:46:27.728Z,99287.00
2022-09-23T12:48:54.111Z,99275.09
2022-09-23T12:51:20.841Z,99267.06
2022-09-23T12:54:14.169Z,99272.59
2022-09-23T12:56:40.396Z,99274.72
2022-09-23T12:59:10.506Z,99264.66
2022-09-23T13:01:38.052Z,99251.56
2022-09-23T13:04:04.600Z,99255.88
2022-09-23T13:06:41.565Z,99250.22
2022-09-23T13:09:17.044Z,99254.38
2022-09-23T13:11:47.477Z,99258.94
2022-09-23T13:14:18.580Z,99254.31
2022-09-23T13:16:45.755Z,99252.31
2022-09-23T13:19:27.490Z,99244.63
2022-09-23T13:21:54.121Z,99251.19
2022-09-23T13:24:24.609Z,99237.97
2022-09-23T13:26:56.023Z,99237.94
2022-09-23T13:29:43.802Z,99228.63
2022-09-23T13:32:15.791Z,99220.44
2022-09-23T13:34:43.812Z,99230.09
2022-09-23T13:37:22.728Z,99218.00
2022-09-23T13:39:49.681Z,99222.44
2022-09-23T13:42:25.901Z,99220.91
2022-09-23T13:44:54.545Z,99203.78
2022-09-23T13:47:21.592Z,99208.56
2022-09-23T13:49:48.480Z,99211.38
2022-09-23T13:52:27.768Z,99212.50
2022-09-23T13:55:00.533Z,99210.25
2022-09-23T13:57:34.379Z,99214.41
2022-09-23T14:00:24.609Z,99214.88
2022-09-23T14:02:52.321Z,99213.31
2022-09-23T14:05:27.426Z,99213.38
2022-09-23T14:07:56.313Z,99193.22
2022-09-23T14:10:25.444Z,99198.28
2022-09-23T14:12:54.356Z,99185.88
2022-09-23T14:15:22.387Z,99192.06
2022-09-23T14:17:52.252Z,99191.84
2022-09-23T14:20:24.007Z,99194.03
2022-09-23T14:23:06.432Z,99175.53
2022-09-23T14:25:34.556Z,99176.16
2022-09-23T14:28:05.176Z,99183.47
2022-09-23T14:30:31.987Z,99167.25
2022-09-23T14:33:05.540Z,99161.06
2022-09-23T14:35:46.426Z,99168.00
2022-09-23T14:38:20.875Z,99154.34
2022-09-23T14:40:57.795Z,99154.69
2022-09-23T14:43:27.487Z,99137.22
2022-09-23T14:45:58.885Z,99146.13
2022-09-23T14:48:28.459Z,99145.97
2022-09-23T14:50:58.542Z,99154.69
2022-09-23T14:53:42.014Z,99133.53
2022-09-23T14:56:18.687Z,99154.34
2022-09-23T14:58:55.948Z,99145.34
2022-09-23T15:01:25.730Z,99141.47
2022-09-23T15:04:11.205Z,99126.94
2022-09-23T15:06:40.475Z,99130.81
2022-09-23T15:09:07.150Z,99134.53
2022-09-23T15:11:35.487Z,99138.56
2022-09-23T15:14:33.219Z,99126.00
2022-09-23T15:16:54.485Z,99119.91
2022-09-23T15:19:22.769Z,99120.94
2022-09-23T15:21:53.418Z,99120.03
2022-09-23T15:24:42.521Z,99131.72
2022-09-23T15:27:22.861Z,99127.28
2022-09-23T15:29:50.104Z,99123.13
2022-09-23T15:32:16.460Z,99134.19
2022-09-23T15:34:42.835Z,99130.75
2022-09-23T15:37:11.342Z,99129.34
2022-09-23T15:39:37.804Z,99128.69
2022-09-23T15:42:04.316Z,99137.91
2022-09-23T15:44:30.606Z,99139.38
2022-09-23T15:46:57.751Z,99132.31
2022-09-23T15:49:34.983Z,99139.19
2022-09-23T15:52:02.645Z,99111.00
2022-09-23T15:54:29.862Z,99128.50
2022-09-23T15:56:56.369Z,99125.25
2022-09-23T15:59:23.447Z,99129.91
2022-09-23T16:01:52.050Z,99114.94
2022-09-23T16:04:18.603Z,99103.63
2022-09-23T16:06:45.160Z,99113.00
2022-09-23T16:09:11.877Z,99107.44
2022-09-23T16:11:38.249Z,99102.53
2022-09-23T16:14:04.612Z,99101.16
2022-09-23T16:16:31.063Z,99108.44
2022-09-23T16:18:57.427Z,99101.88
2022-09-23T16:21:26.327Z,99102.59
2022-09-23T16:23:53.354Z,99092.25
2022-09-23T16:26:28.940Z,99107.78
2022-09-23T16:28:56.650Z,99085.66
2022-09-23T16:31:24.497Z,99109.72
2022-09-23T16:33:52.277Z,99115.44
2022-09-23T16:36:27.440Z,99112.09
2022-09-23T16:38:54.722Z,99114.88
2022-09-23T16:41:25.583Z,99110.69
2022-09-23T16:43:52.498Z,99101.06
2022-09-23T16:46:20.187Z,99119.91
2022-09-23T16:48:52.114Z,99125.91
2022-09-23T16:51:21.420Z,99122.13
2022-09-23T16:53:49.156Z,99112.31
2022-09-23T16:56:16.544Z,99123.19
2022-09-23T16:58:43.698Z,99118.72
2022-09-23T17:01:15.042Z,99120.47
2022-09-23T17:03:41.369Z,99126.84
2022-09-23T17:06:10.366Z,99114.19
2022-09-23T17:08:36.866Z,99110.81
2022-09-23T17:11:03.322Z,99121.63
2022-09-23T17:13:29.918Z,99131.41
2022-09-23T17:15:56.492Z,99129.16
2022-09-23T17:18:22.879Z,99122.00
2022-09-23T17:21:02.407Z,99126.84
2022-09-23T17:23:30.581Z,99128.91
2022-09-23T17:25:58.233Z,99128.59
2022-09-23T17:28:24.594Z,99117.34
2022-09-23T17:30:55.902Z,99129.16
2022-09-23T17:33:22.185Z,99127.03
2022-09-23T17:35:48.567Z,99118.06
2022-09-23T17:38:14.943Z,99129.22
2022-09-23T17:40:41.262Z,99135.03
2022-09-23T17:43:08.063Z,99130.25
2022-09-23T17:45:37.582Z,99138.53
2022-09-23T17:48:03.910Z,99126.19
2022-09-23T17:50:30.297Z,99133.53
2022-09-23T17:52:58.615Z,99112.66
2022-09-23T17:55:25.601Z,99112.31
2022-09-23T17:57:51.876Z,99124.56
2022-09-23T18:00:18.287Z,99114.47
2022-09-23T18:02:44.854Z,99116.66
2022-09-23T18:05:11.341Z,99122.78
2022-09-23T18:07:37.707Z,99121.13
2022-09-23T18:10:04.384Z,99128.81
2022-09-23T18:12:30.753Z,99126.03
2022-09-23T18:14:57.172Z,99116.34
2022-09-23T18:17:23.456Z,99133.28
2022-09-23T18:19:49.892Z,99114.88
2022-09-23T18:22:16.242Z,99133.31
2022-09-23T18:24:42.594Z,99126.31
2022-09-23T18:27:08.866Z,99116.22
2022-09-23T18:29:35.956Z,99117.09
2022-09-23T18:32:02.799Z,99119.13
2022-09-23T18:34:29.640Z,99137.25
2022-09-23T18:36:55.986Z,99125.13
2022-09-23T18:39:22.397Z,99126.34
2022-09-23T18:41:48.793Z,99129.94
2022-09-23T18:44:16.121Z,99121.44
2022-09-23T18:46:42.823Z,99114.19
2022-09-23T18:49:09.373Z,99138.94
2022-09-23T18:51:38.504Z,99133.91
2022-09-23T18:54:07.116Z,99129.44
2022-09-23T18:56:39.484Z,99134.38
2022-09-23T18:59:07.403Z,99136.06
2022-09-23T19:01:37.647Z,99133.91
2022-09-23T19:04:04.992Z,99129.06
2022-09-23T19:06:32.887Z,99138.75
2022-09-23T19:08:59.422Z,99127.13
2022-09-23T19:11:25.763Z,99130.72
2022-09-23T19:13:56.707Z,99135.78
2022-09-23T19:16:23.957Z,99130.84
2022-09-23T19:18:51.148Z,99130.13
2022-09-23T19:21:20.160Z,99135.53
2022-09-23T19:23:49.304Z,99124.97
2022-09-23T19:26:18.887Z,99123.88
2022-09-23T19:28:54.121Z,99135.66
2022-09-23T19:31:25.709Z,99138.75
2022-09-23T19:34:00.578Z,99135.38
2022-09-23T19:36:34.604Z,99127.69
2022-09-23T19:39:03.373Z,99129.72
2022-09-23T19:41:31.488Z,99131.19
2022-09-23T19:43:58.367Z,99115.53
2022-09-23T19:46:24.822Z,99120.81
2022-09-23T19:48:51.160Z,99120.94
2022-09-23T19:51:17.438Z,99107.38
2022-09-23T19:53:43.806Z,99114.19
2022-09-23T19:56:10.088Z,99115.28
2022-09-23T19:58:36.361Z,99111.91
2022-09-23T20:01:07.234Z,99114.44
2022-09-23T20:03:33.741Z,99117.19
2022-09-23T20:06:00.026Z,99117.41
2022-09-23T20:08:26.378Z,99111.28
2022-09-23T20:10:53.054Z,99105.47
2022-09-23T20:13:19.347Z,99124.25
2022-09-23T20:15:46.669Z,99118.69
2022-09-23T20:18:13.102Z,99115.66
2022-09-23T20:20:39.806Z,99118.91
2022-09-23T20:23:06.190Z,99124.41
2022-09-23T20:25:32.560Z,99123.56
2022-09-23T20:27:58.830Z,99110.09
2022-09-23T20:30:25.168Z,99111.06
2022-09-23T20:32:51.438Z,99120.97
2022-09-23T20:35:17.876Z,99121.09
2022-09-23T20:37:44.143Z,99112.47
2022-09-23T20:40:10.727Z,99110.06
2022-09-23T20:42:37.195Z,99115.94
2022-09-23T20:45:03.812Z,99115.31
2022-09-23T20:47:32.745Z,99118.91
2022-09-23T20:49:59.426Z,99108.81
2022-09-23T20:52:26.153Z,99085.03
2022-09-23T20:54:52.521Z,99102.81
2022-09-23T20:57:19.050Z,99100.06
2022-09-23T20:59:52.090Z,99093.44
2022-09-23T21:02:18.737Z,99115.19
2022-09-23T21:04:45.160Z,99096.41
2022-09-23T21:07:11.604Z,99102.94
2022-09-23T21:09:37.878Z,99097.38
2022-09-23T21:12:04.232Z,99096.63
2022-09-23T21:14:30.922Z,99097.63
2022-09-23T21:16:57.273Z,99078.03
2022-09-23T21:19:23.618Z,99097.72
2022-09-23T21:21:49.995Z,99106.47
2022-09-23T21:24:48.745Z,99092.91
2022-09-23T21:27:02.856Z,99094.06
2022-09-23T21:29:29.262Z,99089.84
2022-09-23T21:31:55.605Z,99099.34
2022-09-23T21:34:22.018Z,99090.91
2022-09-23T21:36:48.404Z,99092.66
2022-09-23T21:39:14.824Z,99092.16
2022-09-23T21:41:41.099Z,99096.81
2022-09-23T21:44:07.731Z,99099.66
2022-09-23T21:46:34.385Z,99091.13
2022-09-23T21:49:01.329Z,99091.13
2022-09-23T21:51:30.434Z,99085.97
2022-09-23T21:53:58.099Z,99097.34
2022-09-23T21:56:30.158Z,99081.25
2022-09-23T21:58:58.280Z,99088.66
2022-09-23T22:01:29.584Z,99082.03
2022-09-23T22:04:01.206Z,99096.56
2022-09-23T22:06:28.315Z,99085.38
2022-09-23T22:08:58.123Z,99093.19
2022-09-23T22:11:26.415Z,99086.56
2022-09-23T22:13:52.757Z,99092.06
2022-09-23T22:16:19.264Z,99095.19
2022-09-23T22:18:45.700Z,99093.22
2022-09-23T22:21:12.017Z,99080.69
2022-09-23T22:23:38.519Z,99078.06
2022-09-23T22:26:04.930Z,99089.19
2022-09-23T22:28:32.872Z,99091.13
2022-09-23T22:30:59.185Z,99070.03
2022-09-23T22:33:25.596Z,99075.00
2022-09-23T22:35:52.234Z,99071.84
2022-09-23T22:38:18.835Z,99077.84
2022-09-23T22:40:45.289Z,99073.75
2022-09-23T22:43:11.592Z,99080.69
2022-09-23T22:45:38.122Z,99068.91
2022-09-23T22:48:04.830Z,99072.59
2022-09-23T22:50:31.492Z,99070.91
2022-09-23T22:52:57.777Z,99067.94
2022-09-23T22:55:24.064Z,99067.94
2022-09-23T22:57:50.702Z,99065.53
2022-09-23T23:00:16.994Z,99053.75
2022-09-23T23:02:43.354Z,99046.28
2022-09-23T23:05:10.167Z,99053.88
2022-09-23T23:07:36.597Z,99039.97
2022-09-23T23:10:03.629Z,99052.81
2022-09-23T23:12:30.070Z,99058.69
2022-09-23T23:14:56.411Z,99064.28
2022-09-23T23:17:22.763Z,99053.66
2022-09-23T23:19:49.095Z,99059.44
2022-09-23T23:22:15.536Z,99050.28
2022-09-23T23:24:42.060Z,99060.38
2022-09-23T23:27:08.549Z,99047.00
2022-09-23T23:29:34.899Z,99063.41
2022-09-23T23:32:01.325Z,99047.31
2022-09-23T23:34:27.975Z,99050.16
2022-09-23T23:36:54.769Z,99029.50
2022-09-23T23:39:22.919Z,99059.84
2022-09-23T23:41:52.576Z,99058.47
2022-09-23T23:44:18.866Z,99024.56
2022-09-23T23:46:45.253Z,99048.47
2022-09-23T23:49:11.617Z,99052.03
2022-09-23T23:51:37.878Z,99043.63
2022-09-23T23:54:04.499Z,99053.84
2022-09-23T23:56:31.101Z,99046.25
2022-09-23T23:58:59.689Z,99061.94
